sensor_id;sensor_type;location;lat;lon;timestamp;pressure;altitude;pressure_sealevel;temperature;humidity
27729;BME280;15126;42.186;24.340;2023-02-14T00:01:50;100773.22;;;2.93;63.44
27729;BME280;15126;42.186;24.340;2023-02-14T00:04:18;100776.75;;;2.94;63.85
27729;BME280;15126;42.186;24.340;2023-02-14T00:06:45;100771.81;;;2.99;63.63
27729;BME280;15126;42.186;24.340;2023-02-14T00:09:13;100769.44;;;2.98;63.33
27729;BME280;15126;42.186;24.340;2023-02-14T00:11:40;100769.19;;;3.03;62.69
27729;BME280;15126;42.186;24.340;2023-02-14T00:14:07;100771.50;;;3.01;63.46
27729;BME280;15126;42.186;24.340;2023-02-14T00:16:52;100763.44;;;3.08;62.70
27729;BME280;15126;42.186;24.340;2023-02-14T00:19:20;100767.56;;;3.02;62.71
27729;BME280;15126;42.186;24.340;2023-02-14T00:21:47;100784.69;;;2.95;63.20
27729;BME280;15126;42.186;24.340;2023-02-14T00:24:16;100777.44;;;2.91;63.25
27729;BME280;15126;42.186;24.340;2023-02-14T00:26:43;100776.88;;;2.73;63.83
27729;BME280;15126;42.186;24.340;2023-02-14T00:29:12;100795.34;;;2.73;64.27
27729;BME280;15126;42.186;24.340;2023-02-14T00:31:41;100791.41;;;2.62;64.43
27729;BME280;15126;42.186;24.340;2023-02-14T00:34:09;100782.16;;;2.66;64.57
27729;BME280;15126;42.186;24.340;2023-02-14T00:36:37;100778.59;;;2.66;64.44
27729;BME280;15126;42.186;24.340;2023-02-14T00:39:05;100775.16;;;2.69;63.93
27729;BME280;15126;42.186;24.340;2023-02-14T00:41:32;100772.41;;;2.69;63.79
27729;BME280;15126;42.186;24.340;2023-02-14T00:43:59;100774.22;;;2.65;64.22
27729;BME280;15126;42.186;24.340;2023-02-14T00:46:26;100773.53;;;2.68;63.79
27729;BME280;15126;42.186;24.340;2023-02-14T00:48:53;100757.22;;;2.75;62.89
27729;BME280;15126;42.186;24.340;2023-02-14T00:51:22;100770.31;;;2.66;64.00
27729;BME280;15126;42.186;24.340;2023-02-14T00:53:50;100755.28;;;2.75;62.50
27729;BME280;15126;42.186;24.340;2023-02-14T00:56:17;100755.19;;;2.84;62.18
27729;BME280;15126;42.186;24.340;2023-02-14T00:58:45;100755.63;;;2.86;62.43
27729;BME280;15126;42.186;24.340;2023-02-14T01:01:13;100748.75;;;2.68;62.52
27729;BME280;15126;42.186;24.340;2023-02-14T01:03:40;100749.41;;;2.65;62.91
27729;BME280;15126;42.186;24.340;2023-02-14T01:06:07;100741.16;;;2.53;63.70
27729;BME280;15126;42.186;24.340;2023-02-14T01:08:35;100748.75;;;2.68;62.56
27729;BME280;15126;42.186;24.340;2023-02-14T01:11:06;100750.34;;;2.69;62.87
27729;BME280;15126;42.186;24.340;2023-02-14T01:13:33;100751.03;;;2.66;63.08
27729;BME280;15126;42.186;24.340;2023-02-14T01:16:05;100745.75;;;2.61;63.05
27729;BME280;15126;42.186;24.340;2023-02-14T01:18:33;100750.09;;;2.62;63.02
27729;BME280;15126;42.186;24.340;2023-02-14T01:21:11;100742.41;;;2.55;62.56
27729;BME280;15126;42.186;24.340;2023-02-14T01:23:40;100739.09;;;2.50;63.43
27729;BME280;15126;42.186;24.340;2023-02-14T01:26:08;100730.16;;;2.53;63.19
27729;BME280;15126;42.186;24.340;2023-02-14T01:28:35;100733.00;;;2.56;63.09
27729;BME280;15126;42.186;24.340;2023-02-14T01:31:07;100739.78;;;2.59;63.97
27729;BME280;15126;42.186;24.340;2023-02-14T01:33:34;100724.88;;;2.60;62.59
27729;BME280;15126;42.186;24.340;2023-02-14T01:36:01;100732.09;;;2.64;62.67
27729;BME280;15126;42.186;24.340;2023-02-14T01:38:27;100733.81;;;2.57;63.52
27729;BME280;15126;42.186;24.340;2023-02-14T01:40:56;100717.63;;;2.43;63.18
27729;BME280;15126;42.186;24.340;2023-02-14T01:43:23;100734.75;;;2.61;62.94
27729;BME280;15126;42.186;24.340;2023-02-14T01:45:50;100730.59;;;2.67;62.44
27729;BME280;15126;42.186;24.340;2023-02-14T01:48:19;100708.22;;;2.44;62.69
27729;BME280;15126;42.186;24.340;2023-02-14T01:50:47;100732.78;;;2.49;62.52
27729;BME280;15126;42.186;24.340;2023-02-14T01:53:18;100723.34;;;2.50;63.83
27729;BME280;15126;42.186;24.340;2023-02-14T01:55:50;100724.97;;;2.51;63.21
27729;BME280;15126;42.186;24.340;2023-02-14T01:58:20;100717.28;;;2.57;63.03
27729;BME280;15126;42.186;24.340;2023-02-14T02:00:49;100705.88;;;2.34;63.70
27729;BME280;15126;42.186;24.340;2023-02-14T02:03:23;100704.97;;;2.42;63.95
27729;BME280;15126;42.186;24.340;2023-02-14T02:05:53;100703.72;;;2.27;64.05
27729;BME280;15126;42.186;24.340;2023-02-14T02:08:21;100685.13;;;2.36;63.19
27729;BME280;15126;42.186;24.340;2023-02-14T02:10:48;100680.56;;;2.40;63.43
27729;BME280;15126;42.186;24.340;2023-02-14T02:13:16;100685.38;;;2.44;63.46
27729;BME280;15126;42.186;24.340;2023-02-14T02:15:53;100683.22;;;2.49;63.09
27729;BME280;15126;42.186;24.340;2023-02-14T02:18:27;100657.41;;;2.42;63.00
27729;BME280;15126;42.186;24.340;2023-02-14T02:21:20;100668.63;;;2.49;63.02
27729;BME280;15126;42.186;24.340;2023-02-14T02:24:12;100682.97;;;2.42;63.56
27729;BME280;15126;42.186;24.340;2023-02-14T02:27:10;100682.06;;;2.38;63.31
27729;BME280;15126;42.186;24.340;2023-02-14T02:36:38;100670.91;;;2.34;63.47
27729;BME280;15126;42.186;24.340;2023-02-14T02:39:21;100667.16;;;2.39;63.59
27729;BME280;15126;42.186;24.340;2023-02-14T02:42:00;100668.19;;;2.47;62.28
27729;BME280;15126;42.186;24.340;2023-02-14T02:44:37;100670.03;;;2.55;62.68
27729;BME280;15126;42.186;24.340;2023-02-14T02:47:10;100670.13;;;2.46;62.58
27729;BME280;15126;42.186;24.340;2023-02-14T02:49:47;100673.00;;;2.50;62.07
27729;BME280;15126;42.186;24.340;2023-02-14T02:52:39;100676.22;;;2.52;61.74
27729;BME280;15126;42.186;24.340;2023-02-14T02:55:29;100661.66;;;2.63;61.72
27729;BME280;15126;42.186;24.340;2023-02-14T02:58:21;100665.78;;;2.57;62.10
27729;BME280;15126;42.186;24.340;2023-02-14T03:00:49;100670.00;;;2.67;61.54
27729;BME280;15126;42.186;24.340;2023-02-14T03:03:20;100670.69;;;2.64;61.81
27729;BME280;15126;42.186;24.340;2023-02-14T03:06:06;100668.66;;;2.61;62.93
27729;BME280;15126;42.186;24.340;2023-02-14T03:08:34;100658.44;;;2.61;61.88
27729;BME280;15126;42.186;24.340;2023-02-14T03:11:02;100648.00;;;2.55;62.04
27729;BME280;15126;42.186;24.340;2023-02-14T03:13:41;100639.97;;;2.50;61.47
27729;BME280;15126;42.186;24.340;2023-02-14T03:16:41;100655.91;;;2.68;61.84
27729;BME280;15126;42.186;24.340;2023-02-14T03:19:41;100663.59;;;2.75;60.93
27729;BME280;15126;42.186;24.340;2023-02-14T03:22:40;100655.31;;;2.75;61.42
27729;BME280;15126;42.186;24.340;2023-02-14T03:25:22;100646.97;;;2.71;61.53
27729;BME280;15126;42.186;24.340;2023-02-14T03:27:53;100631.00;;;2.65;61.73
27729;BME280;15126;42.186;24.340;2023-02-14T03:30:28;100634.13;;;2.63;60.90
27729;BME280;15126;42.186;24.340;2023-02-14T03:33:03;100623.09;;;2.63;61.67
27729;BME280;15126;42.186;24.340;2023-02-14T03:35:34;100629.63;;;2.71;61.00
27729;BME280;15126;42.186;24.340;2023-02-14T03:38:07;100626.53;;;2.72;61.10
27729;BME280;15126;42.186;24.340;2023-02-14T03:40:40;100630.09;;;2.73;61.68
27729;BME280;15126;42.186;24.340;2023-02-14T03:43:10;100640.19;;;2.81;61.06
27729;BME280;15126;42.186;24.340;2023-02-14T03:45:41;100633.06;;;2.80;61.96
27729;BME280;15126;42.186;24.340;2023-02-14T03:48:12;100631.22;;;2.84;61.88
27729;BME280;15126;42.186;24.340;2023-02-14T03:50:41;100637.66;;;2.88;61.09
27729;BME280;15126;42.186;24.340;2023-02-14T03:53:10;100635.81;;;2.92;61.16
27729;BME280;15126;42.186;24.340;2023-02-14T03:55:43;100639.25;;;2.89;61.16
27729;BME280;15126;42.186;24.340;2023-02-14T03:58:17;100639.38;;;2.92;60.74
27729;BME280;15126;42.186;24.340;2023-02-14T04:00:49;100635.00;;;2.91;60.72
27729;BME280;15126;42.186;24.340;2023-02-14T04:03:19;100631.09;;;2.92;60.95
27729;BME280;15126;42.186;24.340;2023-02-14T04:05:46;100629.41;;;2.88;61.09
27729;BME280;15126;42.186;24.340;2023-02-14T04:08:19;100614.69;;;2.84;60.81
27729;BME280;15126;42.186;24.340;2023-02-14T04:10:48;100611.03;;;2.80;61.42
27729;BME280;15126;42.186;24.340;2023-02-14T04:13:15;100609.91;;;2.69;63.19
27729;BME280;15126;42.186;24.340;2023-02-14T04:15:42;100611.50;;;2.70;62.69
27729;BME280;15126;42.186;24.340;2023-02-14T04:18:09;100610.81;;;2.73;62.50
27729;BME280;15126;42.186;24.340;2023-02-14T04:20:53;100608.41;;;2.71;62.79
27729;BME280;15126;42.186;24.340;2023-02-14T04:23:20;100584.06;;;2.61;63.52
27729;BME280;15126;42.186;24.340;2023-02-14T04:25:48;100595.34;;;2.68;64.82
27729;BME280;15126;42.186;24.340;2023-02-14T04:28:15;100604.84;;;2.59;65.12
27729;BME280;15126;42.186;24.340;2023-02-14T04:30:41;100605.78;;;2.63;64.67
27729;BME280;15126;42.186;24.340;2023-02-14T04:33:08;100598.41;;;2.67;64.70
27729;BME280;15126;42.186;24.340;2023-02-14T04:35:35;100595.56;;;2.63;64.82
27729;BME280;15126;42.186;24.340;2023-02-14T04:38:03;100575.72;;;2.58;64.81
27729;BME280;15126;42.186;24.340;2023-02-14T04:40:30;100577.22;;;2.55;64.64
27729;BME280;15126;42.186;24.340;2023-02-14T04:42:59;100586.47;;;2.75;63.68
27729;BME280;15126;42.186;24.340;2023-02-14T04:45:26;100580.88;;;2.71;64.70
27729;BME280;15126;42.186;24.340;2023-02-14T04:47:53;100585.69;;;2.62;65.36
27729;BME280;15126;42.186;24.340;2023-02-14T04:50:20;100576.19;;;2.48;66.07
27729;BME280;15126;42.186;24.340;2023-02-14T04:52:47;100580.31;;;2.54;66.31
27729;BME280;15126;42.186;24.340;2023-02-14T04:55:14;100575.25;;;2.56;66.16
27729;BME280;15126;42.186;24.340;2023-02-14T04:57:41;100573.22;;;2.53;65.56
27729;BME280;15126;42.186;24.340;2023-02-14T05:00:10;100568.28;;;2.58;65.52
27729;BME280;15126;42.186;24.340;2023-02-14T05:02:37;100555.97;;;2.56;65.75
27729;BME280;15126;42.186;24.340;2023-02-14T05:05:05;100554.59;;;2.62;65.07
27729;BME280;15126;42.186;24.340;2023-02-14T05:07:32;100559.53;;;2.68;65.31
27729;BME280;15126;42.186;24.340;2023-02-14T05:09:59;100551.84;;;2.62;64.98
27729;BME280;15126;42.186;24.340;2023-02-14T05:12:26;100554.84;;;2.69;65.20
27729;BME280;15126;42.186;24.340;2023-02-14T05:14:53;100555.53;;;2.66;64.70
27729;BME280;15126;42.186;24.340;2023-02-14T05:17:22;100554.09;;;2.72;63.92
27729;BME280;15126;42.186;24.340;2023-02-14T05:19:49;100547.72;;;2.68;65.29
27729;BME280;15126;42.186;24.340;2023-02-14T05:22:16;100549.88;;;2.74;64.39
27729;BME280;15126;42.186;24.340;2023-02-14T05:24:42;100557.59;;;2.69;65.39
27729;BME280;15126;42.186;24.340;2023-02-14T05:27:09;100563.06;;;2.81;64.59
27729;BME280;15126;42.186;24.340;2023-02-14T05:29:36;100562.13;;;2.89;63.72
27729;BME280;15126;42.186;24.340;2023-02-14T05:32:03;100564.97;;;2.92;64.04
27729;BME280;15126;42.186;24.340;2023-02-14T05:34:32;100557.53;;;2.81;63.38
27729;BME280;15126;42.186;24.340;2023-02-14T05:36:58;100569.69;;;2.92;63.87
27729;BME280;15126;42.186;24.340;2023-02-14T05:39:26;100561.97;;;2.97;64.13
27729;BME280;15126;42.186;24.340;2023-02-14T05:41:53;100566.59;;;2.93;64.15
27729;BME280;15126;42.186;24.340;2023-02-14T05:44:21;100555.66;;;2.97;63.79
27729;BME280;15126;42.186;24.340;2023-02-14T05:46:47;100560.16;;;2.89;64.41
27729;BME280;15126;42.186;24.340;2023-02-14T05:49:14;100562.78;;;2.98;63.68
27729;BME280;15126;42.186;24.340;2023-02-14T05:51:42;100560.47;;;3.00;63.94
27729;BME280;15126;42.186;24.340;2023-02-14T05:54:09;100558.78;;;2.95;63.58
27729;BME280;15126;42.186;24.340;2023-02-14T05:56:36;100545.25;;;2.90;63.48
27729;BME280;15126;42.186;24.340;2023-02-14T05:59:03;100553.97;;;2.92;64.47
27729;BME280;15126;42.186;24.340;2023-02-14T06:01:30;100544.09;;;2.91;63.84
27729;BME280;15126;42.186;24.340;2023-02-14T06:03:56;100549.56;;;3.04;63.65
27729;BME280;15126;42.186;24.340;2023-02-14T06:06:23;100544.16;;;3.07;63.06
27729;BME280;15126;42.186;24.340;2023-02-14T06:08:51;100555.88;;;3.04;62.91
27729;BME280;15126;42.186;24.340;2023-02-14T06:11:18;100561.47;;;3.08;62.93
27729;BME280;15126;42.186;24.340;2023-02-14T06:13:45;100545.25;;;3.18;62.57
27729;BME280;15126;42.186;24.340;2023-02-14T06:16:12;100554.28;;;3.31;62.26
27729;BME280;15126;42.186;24.340;2023-02-14T06:18:38;100546.63;;;3.40;61.60
27729;BME280;15126;42.186;24.340;2023-02-14T06:21:05;100547.53;;;3.44;62.64
27729;BME280;15126;42.186;24.340;2023-02-14T06:23:32;100553.09;;;3.59;61.80
27729;BME280;15126;42.186;24.340;2023-02-14T06:26:00;100559.84;;;3.62;61.86
27729;BME280;15126;42.186;24.340;2023-02-14T06:28:28;100551.50;;;3.74;61.12
27729;BME280;15126;42.186;24.340;2023-02-14T06:30:54;100561.75;;;3.89;61.22
27729;BME280;15126;42.186;24.340;2023-02-14T06:33:21;100554.81;;;3.95;61.12
27729;BME280;15126;42.186;24.340;2023-02-14T06:35:48;100546.53;;;4.11;60.50
27729;BME280;15126;42.186;24.340;2023-02-14T06:38:15;100548.84;;;4.25;60.44
27729;BME280;15126;42.186;24.340;2023-02-14T06:40:42;100548.84;;;4.40;60.40
27729;BME280;15126;42.186;24.340;2023-02-14T06:43:10;100568.22;;;4.78;59.45
27729;BME280;15126;42.186;24.340;2023-02-14T06:45:37;100570.19;;;5.13;58.29
27729;BME280;15126;42.186;24.340;2023-02-14T06:48:04;100567.41;;;5.51;56.78
27729;BME280;15126;42.186;24.340;2023-02-14T06:50:34;100566.34;;;5.78;56.02
27729;BME280;15126;42.186;24.340;2023-02-14T06:53:01;100571.41;;;5.95;55.64
27729;BME280;15126;42.186;24.340;2023-02-14T06:55:28;100573.38;;;6.18;54.75
27729;BME280;15126;42.186;24.340;2023-02-14T06:57:54;100575.13;;;6.78;53.94
27729;BME280;15126;42.186;24.340;2023-02-14T07:00:23;100574.66;;;7.32;52.45
27729;BME280;15126;42.186;24.340;2023-02-14T07:02:49;100560.28;;;7.56;50.98
27729;BME280;15126;42.186;24.340;2023-02-14T07:05:19;100547.75;;;7.73;50.31
27729;BME280;15126;42.186;24.340;2023-02-14T07:07:46;100552.34;;;7.55;50.73
27729;BME280;15126;42.186;24.340;2023-02-14T07:10:13;100561.72;;;7.43;50.81
27729;BME280;15126;42.186;24.340;2023-02-14T07:12:40;100545.75;;;7.37;51.47
27729;BME280;15126;42.186;24.340;2023-02-14T07:15:09;100549.06;;;7.46;51.55
27729;BME280;15126;42.186;24.340;2023-02-14T07:17:37;100546.56;;;7.34;51.09
27729;BME280;15126;42.186;24.340;2023-02-14T07:20:06;100545.56;;;7.19;52.11
27729;BME280;15126;42.186;24.340;2023-02-14T07:22:33;100554.22;;;7.14;52.08
27729;BME280;15126;42.186;24.340;2023-02-14T07:25:00;100547.81;;;7.10;52.19
27729;BME280;15126;42.186;24.340;2023-02-14T07:27:28;100542.25;;;7.06;52.09
27729;BME280;15126;42.186;24.340;2023-02-14T07:29:55;100537.25;;;7.19;51.67
27729;BME280;15126;42.186;24.340;2023-02-14T07:32:22;100534.84;;;7.17;52.28
27729;BME280;15126;42.186;24.340;2023-02-14T07:34:50;100528.63;;;7.28;51.32
27729;BME280;15126;42.186;24.340;2023-02-14T07:37:17;100522.63;;;7.26;51.81
27729;BME280;15126;42.186;24.340;2023-02-14T07:39:44;100525.47;;;7.29;51.13
27729;BME280;15126;42.186;24.340;2023-02-14T07:42:11;100519.56;;;7.34;52.11
27729;BME280;15126;42.186;24.340;2023-02-14T07:44:38;100521.81;;;7.58;51.35
27729;BME280;15126;42.186;24.340;2023-02-14T07:47:05;100523.00;;;7.57;51.01
27729;BME280;15126;42.186;24.340;2023-02-14T07:49:32;100519.94;;;7.66;51.30
27729;BME280;15126;42.186;24.340;2023-02-14T07:52:01;100512.88;;;7.75;50.55
27729;BME280;15126;42.186;24.340;2023-02-14T07:54:29;100526.97;;;7.97;50.38
27729;BME280;15126;42.186;24.340;2023-02-14T07:56:55;100525.78;;;7.98;50.80
27729;BME280;15126;42.186;24.340;2023-02-14T07:59:22;100506.38;;;8.01;49.82
27729;BME280;15126;42.186;24.340;2023-02-14T08:01:49;100512.09;;;8.22;50.00
27729;BME280;15126;42.186;24.340;2023-02-14T08:04:16;100509.44;;;8.33;49.35
27729;BME280;15126;42.186;24.340;2023-02-14T08:06:43;100501.56;;;8.46;49.58
27729;BME280;15126;42.186;24.340;2023-02-14T08:09:11;100508.75;;;8.50;49.18
27729;BME280;15126;42.186;24.340;2023-02-14T08:11:49;100516.75;;;8.59;48.62
27729;BME280;15126;42.186;24.340;2023-02-14T08:14:33;100510.50;;;8.72;48.46
27729;BME280;15126;42.186;24.340;2023-02-14T08:17:00;100516.53;;;8.88;49.36
27729;BME280;15126;42.186;24.340;2023-02-14T08:19:27;100516.22;;;9.04;49.20
27729;BME280;15126;42.186;24.340;2023-02-14T08:21:54;100523.78;;;9.11;48.91
27729;BME280;15126;42.186;24.340;2023-02-14T08:24:23;100521.78;;;9.08;47.50
27729;BME280;15126;42.186;24.340;2023-02-14T08:26:50;100517.78;;;9.05;48.38
27729;BME280;15126;42.186;24.340;2023-02-14T08:29:17;100510.31;;;9.20;47.83
27729;BME280;15126;42.186;24.340;2023-02-14T08:31:44;100517.13;;;9.36;46.47
27729;BME280;15126;42.186;24.340;2023-02-14T08:34:12;100517.91;;;9.33;48.16
27729;BME280;15126;42.186;24.340;2023-02-14T08:36:38;100529.47;;;9.42;47.21
27729;BME280;15126;42.186;24.340;2023-02-14T08:39:05;100529.03;;;9.33;47.06
27729;BME280;15126;42.186;24.340;2023-02-14T08:41:34;100525.03;;;9.27;47.96
27729;BME280;15126;42.186;24.340;2023-02-14T08:44:01;100524.22;;;9.27;47.58
27729;BME280;15126;42.186;24.340;2023-02-14T08:46:28;100529.44;;;9.35;47.97
27729;BME280;15126;42.186;24.340;2023-02-14T08:48:55;100521.53;;;9.51;47.48
27729;BME280;15126;42.186;24.340;2023-02-14T08:51:22;100531.94;;;9.72;47.67
27729;BME280;15126;42.186;24.340;2023-02-14T08:53:50;100525.59;;;9.86;47.39
27729;BME280;15126;42.186;24.340;2023-02-14T08:56:19;100533.16;;;9.89;48.56
27729;BME280;15126;42.186;24.340;2023-02-14T08:58:50;100533.13;;;9.75;47.19
27729;BME280;15126;42.186;24.340;2023-02-14T09:01:17;100526.38;;;9.83;47.35
27729;BME280;15126;42.186;24.340;2023-02-14T09:03:44;100509.63;;;9.76;46.66
27729;BME280;15126;42.186;24.340;2023-02-14T09:06:13;100514.41;;;9.79;47.57
27729;BME280;15126;42.186;24.340;2023-02-14T09:08:42;100524.00;;;9.85;47.41
27729;BME280;15126;42.186;24.340;2023-02-14T09:11:10;100525.59;;;9.86;47.37
27729;BME280;15126;42.186;24.340;2023-02-14T09:13:38;100512.84;;;9.85;46.21
27729;BME280;15126;42.186;24.340;2023-02-14T09:16:08;100506.88;;;9.90;46.90
27729;BME280;15126;42.186;24.340;2023-02-14T09:18:35;100500.09;;;9.77;47.95
27729;BME280;15126;42.186;24.340;2023-02-14T09:21:06;100512.81;;;9.81;47.73
27729;BME280;15126;42.186;24.340;2023-02-14T09:23:34;100506.47;;;9.88;47.33
27729;BME280;15126;42.186;24.340;2023-02-14T09:26:01;100494.94;;;9.86;47.11
27729;BME280;15126;42.186;24.340;2023-02-14T09:28:29;100498.94;;;9.88;48.57
27729;BME280;15126;42.186;24.340;2023-02-14T09:30:56;100484.97;;;9.95;47.47
27729;BME280;15126;42.186;24.340;2023-02-14T09:33:26;100495.75;;;9.97;46.92
27729;BME280;15126;42.186;24.340;2023-02-14T09:35:53;100479.00;;;10.11;46.82
27729;BME280;15126;42.186;24.340;2023-02-14T09:38:38;100484.56;;;10.11;46.67
27729;BME280;15126;42.186;24.340;2023-02-14T09:41:05;100492.59;;;10.12;47.21
27729;BME280;15126;42.186;24.340;2023-02-14T09:43:36;100486.97;;;10.09;46.09
27729;BME280;15126;42.186;24.340;2023-02-14T09:46:07;100491.75;;;9.98;47.54
27729;BME280;15126;42.186;24.340;2023-02-14T09:48:41;100494.94;;;9.93;46.93
27729;BME280;15126;42.186;24.340;2023-02-14T09:51:12;100491.75;;;9.98;47.74
27729;BME280;15126;42.186;24.340;2023-02-14T09:53:43;100492.56;;;10.02;47.08
27729;BME280;15126;42.186;24.340;2023-02-14T09:56:16;100469.44;;;10.08;48.81
27729;BME280;15126;42.186;24.340;2023-02-14T09:58:49;100460.72;;;10.17;46.38
27729;BME280;15126;42.186;24.340;2023-02-14T10:01:22;100472.66;;;10.14;47.13
27729;BME280;15126;42.186;24.340;2023-02-14T10:04:06;100472.66;;;10.10;46.84
27729;BME280;15126;42.186;24.340;2023-02-14T10:06:51;100455.53;;;10.01;47.54
27729;BME280;15126;42.186;24.340;2023-02-14T10:09:34;100454.34;;;9.99;46.64
27729;BME280;15126;42.186;24.340;2023-02-14T10:12:20;100455.53;;;10.05;47.18
27729;BME280;15126;42.186;24.340;2023-02-14T10:14:49;100451.97;;;10.19;47.85
27729;BME280;15126;42.186;24.340;2023-02-14T10:17:22;100450.38;;;10.18;47.12
27729;BME280;15126;42.186;24.340;2023-02-14T10:19:56;100454.75;;;10.15;46.96
27729;BME280;15126;42.186;24.340;2023-02-14T10:22:40;100435.22;;;10.08;48.32
27729;BME280;15126;42.186;24.340;2023-02-14T10:25:17;100451.94;;;10.08;47.61
27729;BME280;15126;42.186;24.340;2023-02-14T10:27:47;100434.03;;;10.02;47.96
27729;BME280;15126;42.186;24.340;2023-02-14T10:30:16;100434.03;;;10.05;47.35
27729;BME280;15126;42.186;24.340;2023-02-14T10:32:45;100432.84;;;10.10;47.27
27729;BME280;15126;42.186;24.340;2023-02-14T10:35:22;100412.94;;;10.15;46.95
27729;BME280;15126;42.186;24.340;2023-02-14T10:38:02;100432.81;;;10.35;48.96
27729;BME280;15126;42.186;24.340;2023-02-14T10:40:57;100412.09;;;10.39;46.37
27729;BME280;15126;42.186;24.340;2023-02-14T10:43:34;100402.53;;;10.40;46.67
27729;BME280;15126;42.186;24.340;2023-02-14T10:46:10;100410.88;;;10.47;47.06
27729;BME280;15126;42.186;24.340;2023-02-14T10:48:49;100396.19;;;10.29;46.65
27729;BME280;15126;42.186;24.340;2023-02-14T10:51:31;100398.94;;;10.43;48.19
27729;BME280;15126;42.186;24.340;2023-02-14T10:54:13;100389.38;;;10.44;46.11
27729;BME280;15126;42.186;24.340;2023-02-14T10:56:45;100391.38;;;10.40;46.84
27729;BME280;15126;42.186;24.340;2023-02-14T10:59:19;100377.03;;;10.49;46.61
27729;BME280;15126;42.186;24.340;2023-02-14T11:01:48;100369.09;;;10.37;46.38
27729;BME280;15126;42.186;24.340;2023-02-14T11:04:18;100386.97;;;10.46;47.03
27729;BME280;15126;42.186;24.340;2023-02-14T11:06:48;100392.56;;;10.36;46.23
27729;BME280;15126;42.186;24.340;2023-02-14T11:09:15;100388.97;;;10.42;46.62
27729;BME280;15126;42.186;24.340;2023-02-14T11:11:45;100388.22;;;10.31;47.03
27729;BME280;15126;42.186;24.340;2023-02-14T11:14:22;100379.47;;;10.26;47.75
27729;BME280;15126;42.186;24.340;2023-02-14T11:16:49;100397.81;;;10.16;47.27
27729;BME280;15126;42.186;24.340;2023-02-14T11:19:23;100386.25;;;10.14;46.54
27729;BME280;15126;42.186;24.340;2023-02-14T11:21:53;100386.22;;;10.25;46.20
27729;BME280;15126;42.186;24.340;2023-02-14T11:24:26;100385.03;;;10.29;46.40
27729;BME280;15126;42.186;24.340;2023-02-14T11:26:54;100383.03;;;10.33;46.38
27729;BME280;15126;42.186;24.340;2023-02-14T11:29:28;100377.41;;;10.47;46.85
27729;BME280;15126;42.186;24.340;2023-02-14T11:31:56;100378.59;;;10.50;47.04
27729;BME280;15126;42.186;24.340;2023-02-14T11:34:34;100345.97;;;10.43;46.46
27729;BME280;15126;42.186;24.340;2023-02-14T11:37:16;100368.19;;;10.64;46.18
27729;BME280;15126;42.186;24.340;2023-02-14T11:39:43;100376.97;;;10.52;46.71
27729;BME280;15126;42.186;24.340;2023-02-14T11:42:11;100375.84;;;10.43;47.04
27729;BME280;15126;42.186;24.340;2023-02-14T11:44:53;100376.19;;;10.52;47.61
27729;BME280;15126;42.186;24.340;2023-02-14T11:47:26;100355.03;;;10.58;46.64
27729;BME280;15126;42.186;24.340;2023-02-14T11:49:55;100362.22;;;10.62;47.09
27729;BME280;15126;42.186;24.340;2023-02-14T11:52:24;100370.59;;;10.59;46.66
27729;BME280;15126;42.186;24.340;2023-02-14T11:54:54;100362.22;;;10.59;47.46
27729;BME280;15126;42.186;24.340;2023-02-14T11:57:23;100357.41;;;10.66;46.40
27729;BME280;15126;42.186;24.340;2023-02-14T11:59:54;100360.56;;;10.68;46.93
27729;BME280;15126;42.186;24.340;2023-02-14T12:02:26;100365.00;;;10.62;46.72
27729;BME280;15126;42.186;24.340;2023-02-14T12:04:56;100372.16;;;10.60;45.80
27729;BME280;15126;42.186;24.340;2023-02-14T12:07:28;100361.84;;;10.53;46.95
27729;BME280;15126;42.186;24.340;2023-02-14T12:10:24;100366.63;;;10.53;46.40
27729;BME280;15126;42.186;24.340;2023-02-14T12:12:57;100356.31;;;10.39;46.88
27729;BME280;15126;42.186;24.340;2023-02-14T12:15:30;100359.53;;;10.34;46.96
27729;BME280;15126;42.186;24.340;2023-02-14T12:21:25;100354.03;;;10.02;47.57
27729;BME280;15126;42.186;24.340;2023-02-14T12:24:04;100367.94;;;10.16;46.59
27729;BME280;15126;42.186;24.340;2023-02-14T12:26:42;100359.56;;;10.24;47.19
27729;BME280;15126;42.186;24.340;2023-02-14T12:29:16;100385.88;;;10.19;47.54
27729;BME280;15126;42.186;24.340;2023-02-14T12:31:47;100330.16;;;9.91;46.68
27729;BME280;15126;42.186;24.340;2023-02-14T12:34:16;100360.75;;;10.08;47.25
27729;BME280;15126;42.186;24.340;2023-02-14T12:37:04;100365.16;;;9.99;47.04
27729;BME280;15126;42.186;24.340;2023-02-14T12:39:41;100356.03;;;9.84;48.35
27729;BME280;15126;42.186;24.340;2023-02-14T12:42:26;100338.94;;;9.72;48.19
27729;BME280;15126;42.186;24.340;2023-02-14T12:45:04;100354.06;;;9.78;48.19
27729;BME280;15126;42.186;24.340;2023-02-14T12:47:39;100350.06;;;9.79;48.40
27729;BME280;15126;42.186;24.340;2023-02-14T12:50:27;100348.47;;;9.85;47.28
27729;BME280;15126;42.186;24.340;2023-02-14T12:53:05;100359.59;;;9.85;46.88
27729;BME280;15126;42.186;24.340;2023-02-14T12:55:48;100348.88;;;9.80;47.24
27729;BME280;15126;42.186;24.340;2023-02-14T12:58:25;100356.03;;;9.88;47.00
27729;BME280;15126;42.186;24.340;2023-02-14T13:01:04;100364.78;;;9.97;47.32
27729;BME280;15126;42.186;24.340;2023-02-14T13:04:03;100351.25;;;9.85;47.39
27729;BME280;15126;42.186;24.340;2023-02-14T13:06:37;100350.06;;;9.86;48.44
27729;BME280;15126;42.186;24.340;2023-02-14T13:09:15;100362.81;;;9.69;47.01
27729;BME280;15126;42.186;24.340;2023-02-14T13:11:53;100353.63;;;9.76;48.03
27729;BME280;15126;42.186;24.340;2023-02-14T13:14:56;100357.63;;;9.71;48.25
27729;BME280;15126;42.186;24.340;2023-02-14T13:17:33;100346.88;;;9.73;47.48
27729;BME280;15126;42.186;24.340;2023-02-14T13:22:53;100345.72;;;9.49;47.88